Piper — WDE6779 — position and weather

sailwx.info

Track history (hours):
 
Tides and Currents Weather Stations Pressure Air Temp Water Temp Dewpoint Dewpoint Depression Visibility Wind Speed Wind Dir Waves Ship Positions

Piper

Owner: ADS MARINE, LLC, MORGAN CITY, LA. More information available from US FCC via Universal Licensing System and Coast Guard Vessel Documentation Center.

Last reported at 2017-Feb-20 19:17 UTC. Time now 2017-Feb-21 10:09 UTC.
Position N 29°51' W 091°56'.

Length 40 m; draft 3 m.

Type: Cargo ship. MMSI: 367384720.

Date/timePositionNaut miles runAvg speedWind from/ knotsBaromVisibWave heightAir tempDewpointWater temp
2017-Feb-20 19:17N 29°51' W 091°56'5 6.4
2017-Feb-20 18:33N 29°49' W 092°01'7 6.7
2017-Feb-20 17:33N 29°47' W 092°09'2 2.3
2017-Feb-20 16:33N 29°47' W 092°11'0 0.0
2017-Feb-20 15:33N 29°47' W 092°11'0 0.0
2017-Feb-20 14:33N 29°47' W 092°11'0 0.0
2017-Feb-20 13:33N 29°47' W 092°11'0 0.0
2017-Feb-20 12:33N 29°47' W 092°11'0 0.0
2017-Feb-20 11:33N 29°47' W 092°11'0 0.0
2017-Feb-20 10:33N 29°47' W 092°11'0 0.0
2017-Feb-20 09:33N 29°47' W 092°11'0 0.0
2017-Feb-20 08:33N 29°47' W 092°11'0 0.0
2017-Feb-20 07:33N 29°47' W 092°11'0 0.0
2017-Feb-20 06:33N 29°47' W 092°11'0 0.0
2017-Feb-20 05:33N 29°47' W 092°11'0 0.0
2017-Feb-20 04:33N 29°47' W 092°11'0 0.0
2017-Feb-20 03:33N 29°47' W 092°11'0 0.0
2017-Feb-20 02:33N 29°47' W 092°11'0 0.0
2017-Feb-20 01:33N 29°47' W 092°11'0 0.0
2017-Feb-20 00:33N 29°47' W 092°11'0 0.0
2017-Feb-19 23:33N 29°47' W 092°11'0 0.0
2017-Feb-19 22:33N 29°47' W 092°11'0 0.0
2017-Feb-19 21:33N 29°47' W 092°11'0 0.0
2017-Feb-19 20:33N 29°47' W 092°11'0 0.0
2017-Feb-19 19:33N 29°47' W 092°11'0 0.0
2017-Feb-19 18:33N 29°47' W 092°11'0 0.0
2017-Feb-19 17:33N 29°47' W 092°11'0 0.0
2017-Feb-19 16:33N 29°47' W 092°11'0 0.0
2017-Feb-19 15:33N 29°47' W 092°11'0 0.0
2017-Feb-19 14:33N 29°47' W 092°11'0 0.0
2017-Feb-19 13:33N 29°47' W 092°11'0 0.0
2017-Feb-19 12:33N 29°47' W 092°11'0 0.0
2017-Feb-19 11:31N 29°47' W 092°11'0 0.0
2017-Feb-19 10:33N 29°47' W 092°11'0 0.0
2017-Feb-19 09:33N 29°47' W 092°11'0 0.0
2017-Feb-19 08:33N 29°47' W 092°11'0 0.0
2017-Feb-19 07:33N 29°47' W 092°11'0 0.0
2017-Feb-19 06:33N 29°47' W 092°11'0 0.0
2017-Feb-19 05:33N 29°47' W 092°11'0 0.0
2017-Feb-19 04:33N 29°47' W 092°11'0 0.0
2017-Feb-19 03:33N 29°47' W 092°11'0 0.0
2017-Feb-19 02:33N 29°47' W 092°11'0 0.0
2017-Feb-19 01:33N 29°47' W 092°11'0 0.0
2017-Feb-19 00:33N 29°47' W 092°11'0 0.0
2017-Feb-18 23:33N 29°47' W 092°11'1 0.9
2017-Feb-18 22:33N 29°47' W 092°10'8 8.2
2017-Feb-18 21:33N 29°49' W 092°01'10 8.0
2017-Feb-18 20:18N 29°49' W 091°50'  
2017-Feb-13 03:28N 29°32' W 090°51'6 7.1
2017-Feb-13 02:33N 29°34' W 090°43'4 4.3
2017-Feb-13 01:33N 29°36' W 090°39'8 7.9
2017-Feb-13 00:33N 29°34' W 090°30'  
Track history (hours):
 
Tides and Currents Weather Stations Pressure Air Temp Water Temp Dewpoint Dewpoint Depression Visibility Wind Speed Wind Dir Waves Ship Positions

Piper

Owner: ADS MARINE, LLC, MORGAN CITY, LA. More information available from US FCC via Universal Licensing System and Coast Guard Vessel Documentation Center.

Last reported at 2017-Feb-20 19:17 UTC. Time now 2017-Feb-21 10:09 UTC.
Position N 29°51' W 091°56'.

Length 40 m; draft 3 m.

Type: Cargo ship. MMSI: 367384720.

Date/timePositionNaut miles runAvg speedWind from/ knotsBaromVisibWave heightAir tempDewpointWater temp
2017-Feb-20 19:17N 29°51' W 091°56'5 6.4
2017-Feb-20 18:33N 29°49' W 092°01'7 6.7
2017-Feb-20 17:33N 29°47' W 092°09'2 2.3
2017-Feb-20 16:33N 29°47' W 092°11'0 0.0
2017-Feb-20 15:33N 29°47' W 092°11'0 0.0
2017-Feb-20 14:33N 29°47' W 092°11'0 0.0
2017-Feb-20 13:33N 29°47' W 092°11'0 0.0
2017-Feb-20 12:33N 29°47' W 092°11'0 0.0
2017-Feb-20 11:33N 29°47' W 092°11'0 0.0
2017-Feb-20 10:33N 29°47' W 092°11'0 0.0
2017-Feb-20 09:33N 29°47' W 092°11'0 0.0
2017-Feb-20 08:33N 29°47' W 092°11'0 0.0
2017-Feb-20 07:33N 29°47' W 092°11'0 0.0
2017-Feb-20 06:33N 29°47' W 092°11'0 0.0
2017-Feb-20 05:33N 29°47' W 092°11'0 0.0
2017-Feb-20 04:33N 29°47' W 092°11'0 0.0
2017-Feb-20 03:33N 29°47' W 092°11'0 0.0
2017-Feb-20 02:33N 29°47' W 092°11'0 0.0
2017-Feb-20 01:33N 29°47' W 092°11'0 0.0
2017-Feb-20 00:33N 29°47' W 092°11'0 0.0
2017-Feb-19 23:33N 29°47' W 092°11'0 0.0
2017-Feb-19 22:33N 29°47' W 092°11'0 0.0
2017-Feb-19 21:33N 29°47' W 092°11'0 0.0
2017-Feb-19 20:33N 29°47' W 092°11'0 0.0
2017-Feb-19 19:33N 29°47' W 092°11'0 0.0
2017-Feb-19 18:33N 29°47' W 092°11'0 0.0
2017-Feb-19 17:33N 29°47' W 092°11'0 0.0
2017-Feb-19 16:33N 29°47' W 092°11'0 0.0
2017-Feb-19 15:33N 29°47' W 092°11'0 0.0
2017-Feb-19 14:33N 29°47' W 092°11'0 0.0
2017-Feb-19 13:33N 29°47' W 092°11'0 0.0
2017-Feb-19 12:33N 29°47' W 092°11'0 0.0
2017-Feb-19 11:31N 29°47' W 092°11'0 0.0
2017-Feb-19 10:33N 29°47' W 092°11'0 0.0
2017-Feb-19 09:33N 29°47' W 092°11'0 0.0
2017-Feb-19 08:33N 29°47' W 092°11'0 0.0
2017-Feb-19 07:33N 29°47' W 092°11'0 0.0
2017-Feb-19 06:33N 29°47' W 092°11'0 0.0
2017-Feb-19 05:33N 29°47' W 092°11'0 0.0
2017-Feb-19 04:33N 29°47' W 092°11'0 0.0
2017-Feb-19 03:33N 29°47' W 092°11'0 0.0
2017-Feb-19 02:33N 29°47' W 092°11'0 0.0
2017-Feb-19 01:33N 29°47' W 092°11'0 0.0
2017-Feb-19 00:33N 29°47' W 092°11'0 0.0
2017-Feb-18 23:33N 29°47' W 092°11'1 0.9
2017-Feb-18 22:33N 29°47' W 092°10'8 8.2
2017-Feb-18 21:33N 29°49' W 092°01'10 8.0
2017-Feb-18 20:18N 29°49' W 091°50'  
2017-Feb-13 03:28N 29°32' W 090°51'6 7.1
2017-Feb-13 02:33N 29°34' W 090°43'4 4.3
2017-Feb-13 01:33N 29°36' W 090°39'8 7.9
2017-Feb-13 00:33N 29°34' W 090°30'  

Dump ship's entire track history